sensor_id;sensor_type;location;lat;lon;timestamp;temperature;humidity
20929;DHT22;21895;47.072;15.132;2023-09-19T00:00:46;19.10;99.90
20929;DHT22;21895;47.072;15.132;2023-09-19T00:03:13;19.10;99.90
20929;DHT22;21895;47.072;15.132;2023-09-19T00:05:39;19.10;99.90
20929;DHT22;21895;47.072;15.132;2023-09-19T00:08:10;19.20;99.90
20929;DHT22;21895;47.072;15.132;2023-09-19T00:10:39;19.10;99.90
20929;DHT22;21895;47.072;15.132;2023-09-19T00:13:08;19.10;99.90
20929;DHT22;21895;47.072;15.132;2023-09-19T00:15:40;19.10;99.90
20929;DHT22;21895;47.072;15.132;2023-09-19T00:18:20;19.20;99.90
20929;DHT22;21895;47.072;15.132;2023-09-19T00:20:48;19.30;99.90
20929;DHT22;21895;47.072;15.132;2023-09-19T00:23:15;19.30;99.90
20929;DHT22;21895;47.072;15.132;2023-09-19T00:25:41;19.20;99.90
20929;DHT22;21895;47.072;15.132;2023-09-19T00:28:08;19.30;99.90
20929;DHT22;21895;47.072;15.132;2023-09-19T00:30:35;19.40;99.90
20929;DHT22;21895;47.072;15.132;2023-09-19T00:33:04;19.40;99.90
20929;DHT22;21895;47.072;15.132;2023-09-19T00:35:33;19.30;99.90
20929;DHT22;21895;47.072;15.132;2023-09-19T00:38:00;19.20;99.90
20929;DHT22;21895;47.072;15.132;2023-09-19T00:40:27;19.10;99.90
20929;DHT22;21895;47.072;15.132;2023-09-19T00:42:57;19.10;99.90
20929;DHT22;21895;47.072;15.132;2023-09-19T00:45:27;19.00;99.90
20929;DHT22;21895;47.072;15.132;2023-09-19T00:47:54;19.00;99.90
20929;DHT22;21895;47.072;15.132;2023-09-19T00:50:23;18.90;99.90
20929;DHT22;21895;47.072;15.132;2023-09-19T00:52:54;18.80;99.90
20929;DHT22;21895;47.072;15.132;2023-09-19T00:55:25;18.90;99.90
20929;DHT22;21895;47.072;15.132;2023-09-19T00:57:52;19.00;99.90
20929;DHT22;21895;47.072;15.132;2023-09-19T01:00:21;18.80;99.90
20929;DHT22;21895;47.072;15.132;2023-09-19T01:02:49;18.80;99.90
20929;DHT22;21895;47.072;15.132;2023-09-19T01:05:16;18.80;99.90
20929;DHT22;21895;47.072;15.132;2023-09-19T01:07:43;18.80;99.90
20929;DHT22;21895;47.072;15.132;2023-09-19T01:10:15;18.80;99.90
20929;DHT22;21895;47.072;15.132;2023-09-19T01:20:11;18.80;99.90
20929;DHT22;21895;47.072;15.132;2023-09-19T01:23:09;18.80;99.90
20929;DHT22;21895;47.072;15.132;2023-09-19T01:29:00;18.70;99.90
20929;DHT22;21895;47.072;15.132;2023-09-19T01:31:46;18.70;99.90
20929;DHT22;21895;47.072;15.132;2023-09-19T01:34:15;18.80;99.90
20929;DHT22;21895;47.072;15.132;2023-09-19T01:36:41;18.80;99.90
20929;DHT22;21895;47.072;15.132;2023-09-19T01:39:10;18.80;99.90
20929;DHT22;21895;47.072;15.132;2023-09-19T01:42:06;18.80;99.90
20929;DHT22;21895;47.072;15.132;2023-09-19T01:44:59;18.80;99.90
20929;DHT22;21895;47.072;15.132;2023-09-19T01:47:38;18.70;99.90
20929;DHT22;21895;47.072;15.132;2023-09-19T01:50:37;18.70;99.90
20929;DHT22;21895;47.072;15.132;2023-09-19T01:53:21;18.70;99.90
20929;DHT22;21895;47.072;15.132;2023-09-19T01:55:54;18.70;99.90
20929;DHT22;21895;47.072;15.132;2023-09-19T01:58:45;18.70;99.90
20929;DHT22;21895;47.072;15.132;2023-09-19T02:01:19;18.70;99.90
20929;DHT22;21895;47.072;15.132;2023-09-19T02:03:48;18.90;99.90
20929;DHT22;21895;47.072;15.132;2023-09-19T02:06:17;18.90;99.90
20929;DHT22;21895;47.072;15.132;2023-09-19T02:08:45;18.80;99.90
20929;DHT22;21895;47.072;15.132;2023-09-19T02:11:15;18.70;99.90
20929;DHT22;21895;47.072;15.132;2023-09-19T02:13:42;18.70;99.90
20929;DHT22;21895;47.072;15.132;2023-09-19T02:16:10;18.60;99.90
20929;DHT22;21895;47.072;15.132;2023-09-19T02:18:37;18.60;99.90
20929;DHT22;21895;47.072;15.132;2023-09-19T02:21:03;18.50;99.90
20929;DHT22;21895;47.072;15.132;2023-09-19T02:23:30;18.50;99.90
20929;DHT22;21895;47.072;15.132;2023-09-19T02:25:57;18.40;99.90
20929;DHT22;21895;47.072;15.132;2023-09-19T02:28:24;18.60;99.90
20929;DHT22;21895;47.072;15.132;2023-09-19T02:30:52;18.80;99.90
20929;DHT22;21895;47.072;15.132;2023-09-19T02:33:19;18.90;99.90
20929;DHT22;21895;47.072;15.132;2023-09-19T02:35:45;18.80;99.90
20929;DHT22;21895;47.072;15.132;2023-09-19T02:38:13;18.90;99.90
20929;DHT22;21895;47.072;15.132;2023-09-19T02:40:44;18.90;99.90
20929;DHT22;21895;47.072;15.132;2023-09-19T02:43:10;18.90;99.90
20929;DHT22;21895;47.072;15.132;2023-09-19T02:45:37;18.90;99.90
20929;DHT22;21895;47.072;15.132;2023-09-19T02:48:05;19.00;99.90
20929;DHT22;21895;47.072;15.132;2023-09-19T02:50:33;19.00;99.90
20929;DHT22;21895;47.072;15.132;2023-09-19T02:53:00;19.00;99.90
20929;DHT22;21895;47.072;15.132;2023-09-19T02:55:29;19.10;99.90
20929;DHT22;21895;47.072;15.132;2023-09-19T02:57:56;19.00;99.90
20929;DHT22;21895;47.072;15.132;2023-09-19T03:00:23;19.00;99.90
20929;DHT22;21895;47.072;15.132;2023-09-19T03:02:53;18.90;99.90
20929;DHT22;21895;47.072;15.132;2023-09-19T03:05:21;18.80;99.90
20929;DHT22;21895;47.072;15.132;2023-09-19T03:07:49;18.80;99.90
20929;DHT22;21895;47.072;15.132;2023-09-19T03:10:20;18.80;99.90
20929;DHT22;21895;47.072;15.132;2023-09-19T03:12:47;18.70;99.90
20929;DHT22;21895;47.072;15.132;2023-09-19T03:15:14;18.60;99.90
20929;DHT22;21895;47.072;15.132;2023-09-19T03:17:45;18.60;99.90
20929;DHT22;21895;47.072;15.132;2023-09-19T03:20:14;18.60;99.90
20929;DHT22;21895;47.072;15.132;2023-09-19T03:22:43;18.60;99.90
20929;DHT22;21895;47.072;15.132;2023-09-19T03:25:10;18.60;99.90
20929;DHT22;21895;47.072;15.132;2023-09-19T03:27:38;18.60;99.90
20929;DHT22;21895;47.072;15.132;2023-09-19T03:30:07;18.60;99.90
20929;DHT22;21895;47.072;15.132;2023-09-19T03:32:48;18.60;99.90
20929;DHT22;21895;47.072;15.132;2023-09-19T03:35:16;18.50;99.90
20929;DHT22;21895;47.072;15.132;2023-09-19T03:37:44;18.50;99.90
20929;DHT22;21895;47.072;15.132;2023-09-19T03:40:11;18.30;99.90
20929;DHT22;21895;47.072;15.132;2023-09-19T03:42:39;18.20;99.90
20929;DHT22;21895;47.072;15.132;2023-09-19T03:45:08;18.20;99.90
20929;DHT22;21895;47.072;15.132;2023-09-19T03:47:39;18.10;99.90
20929;DHT22;21895;47.072;15.132;2023-09-19T03:50:06;18.00;99.90
20929;DHT22;21895;47.072;15.132;2023-09-19T03:52:34;18.00;99.90
20929;DHT22;21895;47.072;15.132;2023-09-19T03:55:01;17.90;99.90
20929;DHT22;21895;47.072;15.132;2023-09-19T03:57:30;17.80;99.90
20929;DHT22;21895;47.072;15.132;2023-09-19T03:59:57;17.80;99.90
20929;DHT22;21895;47.072;15.132;2023-09-19T04:02:23;17.70;99.90
20929;DHT22;21895;47.072;15.132;2023-09-19T04:04:51;17.70;99.90
20929;DHT22;21895;47.072;15.132;2023-09-19T04:07:18;17.70;99.90
20929;DHT22;21895;47.072;15.132;2023-09-19T04:09:48;17.70;99.90
20929;DHT22;21895;47.072;15.132;2023-09-19T04:12:15;17.70;99.90
20929;DHT22;21895;47.072;15.132;2023-09-19T04:14:43;17.80;99.90
20929;DHT22;21895;47.072;15.132;2023-09-19T04:17:09;17.80;99.90
20929;DHT22;21895;47.072;15.132;2023-09-19T04:19:37;17.80;99.90
20929;DHT22;21895;47.072;15.132;2023-09-19T04:22:04;17.60;99.90
20929;DHT22;21895;47.072;15.132;2023-09-19T04:24:30;17.90;99.90
20929;DHT22;21895;47.072;15.132;2023-09-19T04:26:58;17.70;99.90
20929;DHT22;21895;47.072;15.132;2023-09-19T04:29:25;17.60;99.90
20929;DHT22;21895;47.072;15.132;2023-09-19T04:31:56;17.60;99.90
20929;DHT22;21895;47.072;15.132;2023-09-19T04:34:25;17.60;99.90
20929;DHT22;21895;47.072;15.132;2023-09-19T04:36:52;17.60;99.90
20929;DHT22;21895;47.072;15.132;2023-09-19T04:39:19;17.70;99.90
20929;DHT22;21895;47.072;15.132;2023-09-19T04:41:46;17.60;99.90
20929;DHT22;21895;47.072;15.132;2023-09-19T04:44:13;17.60;99.90
20929;DHT22;21895;47.072;15.132;2023-09-19T04:46:40;17.50;99.90
20929;DHT22;21895;47.072;15.132;2023-09-19T04:49:07;17.50;99.90
20929;DHT22;21895;47.072;15.132;2023-09-19T04:51:33;17.40;99.90
20929;DHT22;21895;47.072;15.132;2023-09-19T04:54:02;17.40;99.90
20929;DHT22;21895;47.072;15.132;2023-09-19T04:56:28;17.40;99.90
20929;DHT22;21895;47.072;15.132;2023-09-19T04:58:56;17.40;99.90
20929;DHT22;21895;47.072;15.132;2023-09-19T05:01:25;17.30;99.90
20929;DHT22;21895;47.072;15.132;2023-09-19T05:03:51;17.30;99.90
20929;DHT22;21895;47.072;15.132;2023-09-19T05:06:19;17.30;99.90
20929;DHT22;21895;47.072;15.132;2023-09-19T05:08:50;17.30;99.90
20929;DHT22;21895;47.072;15.132;2023-09-19T05:11:18;17.30;99.90
20929;DHT22;21895;47.072;15.132;2023-09-19T05:13:47;17.20;99.90
20929;DHT22;21895;47.072;15.132;2023-09-19T05:16:18;17.30;99.90
20929;DHT22;21895;47.072;15.132;2023-09-19T05:18:45;17.30;99.90
20929;DHT22;21895;47.072;15.132;2023-09-19T05:21:12;17.40;99.90
20929;DHT22;21895;47.072;15.132;2023-09-19T05:23:38;17.40;99.90
20929;DHT22;21895;47.072;15.132;2023-09-19T05:26:05;17.50;99.90
20929;DHT22;21895;47.072;15.132;2023-09-19T05:28:32;17.50;99.90
20929;DHT22;21895;47.072;15.132;2023-09-19T05:31:01;17.40;99.90
20929;DHT22;21895;47.072;15.132;2023-09-19T05:33:30;17.40;99.90
20929;DHT22;21895;47.072;15.132;2023-09-19T05:35:57;17.50;99.90
20929;DHT22;21895;47.072;15.132;2023-09-19T05:38:24;17.50;99.90
20929;DHT22;21895;47.072;15.132;2023-09-19T05:40:52;17.50;99.90
20929;DHT22;21895;47.072;15.132;2023-09-19T05:43:19;17.60;99.90
20929;DHT22;21895;47.072;15.132;2023-09-19T05:45:45;17.70;99.90
20929;DHT22;21895;47.072;15.132;2023-09-19T05:48:13;17.80;99.90
20929;DHT22;21895;47.072;15.132;2023-09-19T05:50:42;17.90;99.90
20929;DHT22;21895;47.072;15.132;2023-09-19T05:53:09;18.00;99.90
20929;DHT22;21895;47.072;15.132;2023-09-19T05:55:38;18.10;99.90
20929;DHT22;21895;47.072;15.132;2023-09-19T05:58:05;18.10;99.90
20929;DHT22;21895;47.072;15.132;2023-09-19T06:00:33;18.20;99.90
20929;DHT22;21895;47.072;15.132;2023-09-19T06:03:00;18.20;99.90
20929;DHT22;21895;47.072;15.132;2023-09-19T06:05:27;18.10;99.90
20929;DHT22;21895;47.072;15.132;2023-09-19T06:07:56;18.10;99.90
20929;DHT22;21895;47.072;15.132;2023-09-19T06:10:26;18.20;99.90
20929;DHT22;21895;47.072;15.132;2023-09-19T06:12:58;18.20;99.90
20929;DHT22;21895;47.072;15.132;2023-09-19T06:15:25;18.10;99.90
20929;DHT22;21895;47.072;15.132;2023-09-19T06:17:54;18.10;99.90
20929;DHT22;21895;47.072;15.132;2023-09-19T06:20:22;18.20;99.90
20929;DHT22;21895;47.072;15.132;2023-09-19T06:22:50;18.00;99.90
20929;DHT22;21895;47.072;15.132;2023-09-19T06:25:17;18.10;99.90
20929;DHT22;21895;47.072;15.132;2023-09-19T06:27:48;18.00;99.90
20929;DHT22;21895;47.072;15.132;2023-09-19T06:30:18;18.00;99.90
20929;DHT22;21895;47.072;15.132;2023-09-19T06:32:45;18.00;99.90
20929;DHT22;21895;47.072;15.132;2023-09-19T06:35:13;18.10;99.90
20929;DHT22;21895;47.072;15.132;2023-09-19T06:37:42;18.10;99.90
20929;DHT22;21895;47.072;15.132;2023-09-19T06:40:10;18.20;99.90
20929;DHT22;21895;47.072;15.132;2023-09-19T06:42:46;18.20;99.90
20929;DHT22;21895;47.072;15.132;2023-09-19T06:45:16;18.20;99.90
20929;DHT22;21895;47.072;15.132;2023-09-19T06:47:46;18.10;99.90
20929;DHT22;21895;47.072;15.132;2023-09-19T06:50:21;18.30;99.90
20929;DHT22;21895;47.072;15.132;2023-09-19T06:52:52;18.30;99.90
20929;DHT22;21895;47.072;15.132;2023-09-19T06:55:22;18.40;99.90
20929;DHT22;21895;47.072;15.132;2023-09-19T06:57:54;18.40;99.90
20929;DHT22;21895;47.072;15.132;2023-09-19T07:00:21;18.30;99.90
20929;DHT22;21895;47.072;15.132;2023-09-19T07:02:58;18.30;99.90
20929;DHT22;21895;47.072;15.132;2023-09-19T07:05:35;18.20;99.90
20929;DHT22;21895;47.072;15.132;2023-09-19T07:08:07;18.10;99.90
20929;DHT22;21895;47.072;15.132;2023-09-19T07:10:36;18.10;99.90
20929;DHT22;21895;47.072;15.132;2023-09-19T07:13:04;18.00;99.90
20929;DHT22;21895;47.072;15.132;2023-09-19T07:15:38;18.10;99.90
20929;DHT22;21895;47.072;15.132;2023-09-19T07:18:06;18.10;99.90
20929;DHT22;21895;47.072;15.132;2023-09-19T07:20:37;18.20;99.90
20929;DHT22;21895;47.072;15.132;2023-09-19T07:23:04;18.20;99.90
20929;DHT22;21895;47.072;15.132;2023-09-19T07:25:32;18.00;99.90
20929;DHT22;21895;47.072;15.132;2023-09-19T07:27:59;18.10;99.90
20929;DHT22;21895;47.072;15.132;2023-09-19T07:30:26;18.20;99.90
20929;DHT22;21895;47.072;15.132;2023-09-19T07:32:53;18.50;99.90
20929;DHT22;21895;47.072;15.132;2023-09-19T07:35:19;18.70;99.90
20929;DHT22;21895;47.072;15.132;2023-09-19T07:37:47;18.90;99.90
20929;DHT22;21895;47.072;15.132;2023-09-19T07:40:18;19.30;99.90
20929;DHT22;21895;47.072;15.132;2023-09-19T07:42:46;19.70;99.90
20929;DHT22;21895;47.072;15.132;2023-09-19T07:45:13;20.10;99.90
20929;DHT22;21895;47.072;15.132;2023-09-19T07:47:44;20.30;99.90
20929;DHT22;21895;47.072;15.132;2023-09-19T07:50:15;20.50;99.90
20929;DHT22;21895;47.072;15.132;2023-09-19T07:52:48;20.50;99.90
20929;DHT22;21895;47.072;15.132;2023-09-19T07:55:19;20.50;99.90
20929;DHT22;21895;47.072;15.132;2023-09-19T07:57:49;20.40;99.90
20929;DHT22;21895;47.072;15.132;2023-09-19T08:00:16;20.50;99.90
20929;DHT22;21895;47.072;15.132;2023-09-19T08:02:43;20.60;99.90
20929;DHT22;21895;47.072;15.132;2023-09-19T08:05:10;20.60;99.90
20929;DHT22;21895;47.072;15.132;2023-09-19T08:07:40;20.70;99.90
20929;DHT22;21895;47.072;15.132;2023-09-19T08:10:08;21.00;99.90
20929;DHT22;21895;47.072;15.132;2023-09-19T08:12:43;21.30;99.90
20929;DHT22;21895;47.072;15.132;2023-09-19T08:15:17;21.50;99.90
20929;DHT22;21895;47.072;15.132;2023-09-19T08:17:46;21.80;99.90
20929;DHT22;21895;47.072;15.132;2023-09-19T08:20:13;21.90;99.90
20929;DHT22;21895;47.072;15.132;2023-09-19T08:22:46;22.00;99.90
20929;DHT22;21895;47.072;15.132;2023-09-19T08:25:23;22.20;99.90
20929;DHT22;21895;47.072;15.132;2023-09-19T08:27:52;22.40;99.90
20929;DHT22;21895;47.072;15.132;2023-09-19T08:30:20;22.40;99.90
20929;DHT22;21895;47.072;15.132;2023-09-19T08:32:56;22.60;99.90
20929;DHT22;21895;47.072;15.132;2023-09-19T08:35:27;22.80;99.90
20929;DHT22;21895;47.072;15.132;2023-09-19T08:37:54;22.90;99.90
20929;DHT22;21895;47.072;15.132;2023-09-19T08:40:22;22.90;99.90
20929;DHT22;21895;47.072;15.132;2023-09-19T08:42:58;22.90;99.90
20929;DHT22;21895;47.072;15.132;2023-09-19T08:45:25;23.10;99.90
20929;DHT22;21895;47.072;15.132;2023-09-19T08:51:06;23.60;99.90
20929;DHT22;21895;47.072;15.132;2023-09-19T08:54:22;23.80;99.90
20929;DHT22;21895;47.072;15.132;2023-09-19T08:56:54;23.70;99.90
20929;DHT22;21895;47.072;15.132;2023-09-19T08:59:23;23.70;99.90
20929;DHT22;21895;47.072;15.132;2023-09-19T09:01:51;23.90;99.90
20929;DHT22;21895;47.072;15.132;2023-09-19T09:04:21;24.10;99.90
20929;DHT22;21895;47.072;15.132;2023-09-19T09:06:50;24.10;99.90
20929;DHT22;21895;47.072;15.132;2023-09-19T09:09:20;24.10;99.90
20929;DHT22;21895;47.072;15.132;2023-09-19T09:11:48;24.20;99.90
20929;DHT22;21895;47.072;15.132;2023-09-19T09:14:20;24.50;99.90
20929;DHT22;21895;47.072;15.132;2023-09-19T09:16:47;24.50;99.90
20929;DHT22;21895;47.072;15.132;2023-09-19T09:19:15;24.40;99.90
20929;DHT22;21895;47.072;15.132;2023-09-19T09:21:50;24.30;99.90
20929;DHT22;21895;47.072;15.132;2023-09-19T09:24:30;24.30;99.90
20929;DHT22;21895;47.072;15.132;2023-09-19T09:27:07;24.30;99.90
20929;DHT22;21895;47.072;15.132;2023-09-19T09:29:44;24.30;99.90
20929;DHT22;21895;47.072;15.132;2023-09-19T09:32:25;24.30;99.90
20929;DHT22;21895;47.072;15.132;2023-09-19T09:34:59;24.30;99.90
20929;DHT22;21895;47.072;15.132;2023-09-19T09:37:29;24.20;99.90
20929;DHT22;21895;47.072;15.132;2023-09-19T09:40:02;24.20;99.90
20929;DHT22;21895;47.072;15.132;2023-09-19T09:42:41;24.30;99.90
20929;DHT22;21895;47.072;15.132;2023-09-19T09:45:23;24.50;99.90
20929;DHT22;21895;47.072;15.132;2023-09-19T09:48:00;24.60;99.90
20929;DHT22;21895;47.072;15.132;2023-09-19T09:50:34;24.70;99.90
20929;DHT22;21895;47.072;15.132;2023-09-19T09:53:27;24.80;99.90
20929;DHT22;21895;47.072;15.132;2023-09-19T09:56:08;25.10;99.90
20929;DHT22;21895;47.072;15.132;2023-09-19T09:58:37;25.50;99.90
20929;DHT22;21895;47.072;15.132;2023-09-19T10:01:15;25.70;99.70
20929;DHT22;21895;47.072;15.132;2023-09-19T10:03:42;25.70;98.70
20929;DHT22;21895;47.072;15.132;2023-09-19T10:06:15;25.40;97.70
20929;DHT22;21895;47.072;15.132;2023-09-19T10:09:08;25.10;98.40
20929;DHT22;21895;47.072;15.132;2023-09-19T10:12:08;25.00;98.60
20929;DHT22;21895;47.072;15.132;2023-09-19T10:14:40;24.60;99.40
20929;DHT22;21895;47.072;15.132;2023-09-19T10:17:10;24.50;99.90
20929;DHT22;21895;47.072;15.132;2023-09-19T10:19:57;24.50;99.90
20929;DHT22;21895;47.072;15.132;2023-09-19T10:22:27;24.40;99.90
20929;DHT22;21895;47.072;15.132;2023-09-19T10:24:57;24.40;99.90
20929;DHT22;21895;47.072;15.132;2023-09-19T10:27:29;24.30;99.90
20929;DHT22;21895;47.072;15.132;2023-09-19T10:30:05;24.30;99.90
20929;DHT22;21895;47.072;15.132;2023-09-19T10:32:35;24.30;99.90
20929;DHT22;21895;47.072;15.132;2023-09-19T10:35:07;24.50;99.90
20929;DHT22;21895;47.072;15.132;2023-09-19T10:37:35;24.50;99.90
20929;DHT22;21895;47.072;15.132;2023-09-19T10:40:06;24.90;99.90
20929;DHT22;21895;47.072;15.132;2023-09-19T10:42:46;25.40;99.90
20929;DHT22;21895;47.072;15.132;2023-09-19T10:45:17;25.60;99.90
20929;DHT22;21895;47.072;15.132;2023-09-19T10:47:44;25.90;99.40
20929;DHT22;21895;47.072;15.132;2023-09-19T10:50:22;25.90;98.00
20929;DHT22;21895;47.072;15.132;2023-09-19T10:52:50;26.00;97.20
20929;DHT22;21895;47.072;15.132;2023-09-19T10:55:25;26.00;96.70
20929;DHT22;21895;47.072;15.132;2023-09-19T10:57:55;25.90;97.20
20929;DHT22;21895;47.072;15.132;2023-09-19T11:00:24;25.70;96.60
20929;DHT22;21895;47.072;15.132;2023-09-19T11:05:16;25.40;95.30
20929;DHT22;21895;47.072;15.132;2023-09-19T11:07:58;24.90;97.70
20929;DHT22;21895;47.072;15.132;2023-09-19T11:10:51;24.60;97.20
20929;DHT22;21895;47.072;15.132;2023-09-19T11:13:31;24.80;97.30
20929;DHT22;21895;47.072;15.132;2023-09-19T11:16:05;24.90;97.10
20929;DHT22;21895;47.072;15.132;2023-09-19T11:24:42;25.30;96.40
20929;DHT22;21895;47.072;15.132;2023-09-19T11:27:13;25.40;95.90
20929;DHT22;21895;47.072;15.132;2023-09-19T11:29:40;25.20;96.20
20929;DHT22;21895;47.072;15.132;2023-09-19T11:32:07;25.30;95.30
20929;DHT22;21895;47.072;15.132;2023-09-19T11:34:40;25.40;95.60
20929;DHT22;21895;47.072;15.132;2023-09-19T11:41:50;25.60;95.70
20929;DHT22;21895;47.072;15.132;2023-09-19T11:44:33;25.80;95.20
20929;DHT22;21895;47.072;15.132;2023-09-19T11:47:01;25.90;94.80
20929;DHT22;21895;47.072;15.132;2023-09-19T11:49:30;25.90;94.70
20929;DHT22;21895;47.072;15.132;2023-09-19T11:52:00;25.90;94.40
20929;DHT22;21895;47.072;15.132;2023-09-19T11:54:31;25.80;94.70
20929;DHT22;21895;47.072;15.132;2023-09-19T11:56:59;26.00;95.10
20929;DHT22;21895;47.072;15.132;2023-09-19T11:59:28;26.10;94.70
20929;DHT22;21895;47.072;15.132;2023-09-19T12:02:01;26.20;94.90
20929;DHT22;21895;47.072;15.132;2023-09-19T12:04:39;26.30;94.90
20929;DHT22;21895;47.072;15.132;2023-09-19T12:07:16;26.30;94.90
20929;DHT22;21895;47.072;15.132;2023-09-19T12:09:49;26.40;94.20
20929;DHT22;21895;47.072;15.132;2023-09-19T12:12:28;26.40;95.00
20929;DHT22;21895;47.072;15.132;2023-09-19T12:14:56;26.30;96.20
20929;DHT22;21895;47.072;15.132;2023-09-19T12:17:37;26.10;95.60
20929;DHT22;21895;47.072;15.132;2023-09-19T12:20:08;25.70;95.50
20929;DHT22;21895;47.072;15.132;2023-09-19T12:22:44;25.40;95.60
20929;DHT22;21895;47.072;15.132;2023-09-19T12:25:13;25.20;95.70
20929;DHT22;21895;47.072;15.132;2023-09-19T12:27:47;25.20;95.90
20929;DHT22;21895;47.072;15.132;2023-09-19T12:30:16;25.20;95.80
20929;DHT22;21895;47.072;15.132;2023-09-19T12:32:53;25.30;96.30
20929;DHT22;21895;47.072;15.132;2023-09-19T12:35:32;25.30;96.10
20929;DHT22;21895;47.072;15.132;2023-09-19T12:38:02;25.20;96.40
20929;DHT22;21895;47.072;15.132;2023-09-19T12:40:30;25.10;96.70
20929;DHT22;21895;47.072;15.132;2023-09-19T12:42:59;25.30;96.20
20929;DHT22;21895;47.072;15.132;2023-09-19T12:45:30;25.60;96.20
20929;DHT22;21895;47.072;15.132;2023-09-19T12:48:22;26.00;96.40
20929;DHT22;21895;47.072;15.132;2023-09-19T12:51:01;26.20;95.00
20929;DHT22;21895;47.072;15.132;2023-09-19T12:53:43;26.20;94.70
20929;DHT22;21895;47.072;15.132;2023-09-19T12:56:13;26.10;95.60
20929;DHT22;21895;47.072;15.132;2023-09-19T12:58:57;25.90;95.40
20929;DHT22;21895;47.072;15.132;2023-09-19T13:01:29;25.50;94.90
20929;DHT22;21895;47.072;15.132;2023-09-19T13:04:15;25.20;95.20
20929;DHT22;21895;47.072;15.132;2023-09-19T13:06:48;25.00;95.50
20929;DHT22;21895;47.072;15.132;2023-09-19T13:09:21;24.80;95.60
20929;DHT22;21895;47.072;15.132;2023-09-19T13:11:50;24.60;96.20
20929;DHT22;21895;47.072;15.132;2023-09-19T13:14:22;24.60;96.10
20929;DHT22;21895;47.072;15.132;2023-09-19T13:17:07;24.60;96.30
20929;DHT22;21895;47.072;15.132;2023-09-19T13:19:49;24.80;95.90
20929;DHT22;21895;47.072;15.132;2023-09-19T13:22:40;24.80;95.60
20929;DHT22;21895;47.072;15.132;2023-09-19T13:25:16;24.90;94.80
20929;DHT22;21895;47.072;15.132;2023-09-19T13:27:53;25.10;95.10
20929;DHT22;21895;47.072;15.132;2023-09-19T13:30:23;25.00;95.80
20929;DHT22;21895;47.072;15.132;2023-09-19T13:32:52;25.00;95.50
20929;DHT22;21895;47.072;15.132;2023-09-19T13:35:33;25.00;95.30
20929;DHT22;21895;47.072;15.132;2023-09-19T13:37:59;25.10;95.00
20929;DHT22;21895;47.072;15.132;2023-09-19T13:40:26;25.00;95.30
20929;DHT22;21895;47.072;15.132;2023-09-19T13:42:56;25.00;95.80
20929;DHT22;21895;47.072;15.132;2023-09-19T13:45:23;25.10;96.10
20929;DHT22;21895;47.072;15.132;2023-09-19T13:47:56;25.20;95.40
20929;DHT22;21895;47.072;15.132;2023-09-19T13:50:24;25.30;94.70
20929;DHT22;21895;47.072;15.132;2023-09-19T13:52:55;25.20;94.70
20929;DHT22;21895;47.072;15.132;2023-09-19T13:55:21;25.20;94.10
20929;DHT22;21895;47.072;15.132;2023-09-19T13:57:48;25.20;94.80
20929;DHT22;21895;47.072;15.132;2023-09-19T14:00:24;25.20;94.60
20929;DHT22;21895;47.072;15.132;2023-09-19T14:02:51;25.20;94.20
20929;DHT22;21895;47.072;15.132;2023-09-19T14:05:18;25.10;94.40
20929;DHT22;21895;47.072;15.132;2023-09-19T14:07:46;25.20;94.70
20929;DHT22;21895;47.072;15.132;2023-09-19T14:10:13;25.20;94.40
20929;DHT22;21895;47.072;15.132;2023-09-19T14:12:40;25.20;94.30
20929;DHT22;21895;47.072;15.132;2023-09-19T14:15:10;25.00;93.60
20929;DHT22;21895;47.072;15.132;2023-09-19T14:17:38;25.00;93.80
20929;DHT22;21895;47.072;15.132;2023-09-19T14:20:08;25.00;94.30
20929;DHT22;21895;47.072;15.132;2023-09-19T14:22:36;25.00;94.90
20929;DHT22;21895;47.072;15.132;2023-09-19T14:25:04;24.80;95.80
20929;DHT22;21895;47.072;15.132;2023-09-19T14:27:31;24.70;95.20
20929;DHT22;21895;47.072;15.132;2023-09-19T14:29:57;24.50;96.20
20929;DHT22;21895;47.072;15.132;2023-09-19T14:32:24;24.50;95.90
20929;DHT22;21895;47.072;15.132;2023-09-19T14:34:51;24.50;96.20
20929;DHT22;21895;47.072;15.132;2023-09-19T14:37:18;24.50;96.00
20929;DHT22;21895;47.072;15.132;2023-09-19T14:39:47;24.50;96.50
20929;DHT22;21895;47.072;15.132;2023-09-19T14:42:13;24.50;96.60
20929;DHT22;21895;47.072;15.132;2023-09-19T14:44:43;24.50;96.40
20929;DHT22;21895;47.072;15.132;2023-09-19T14:47:10;24.50;96.50
20929;DHT22;21895;47.072;15.132;2023-09-19T14:49:39;24.60;96.90
20929;DHT22;21895;47.072;15.132;2023-09-19T14:52:07;24.50;97.00
20929;DHT22;21895;47.072;15.132;2023-09-19T14:54:36;24.50;97.50
20929;DHT22;21895;47.072;15.132;2023-09-19T14:57:07;24.50;97.40
20929;DHT22;21895;47.072;15.132;2023-09-19T14:59:35;24.40;97.50
20929;DHT22;21895;47.072;15.132;2023-09-19T15:02:04;24.40;97.10
20929;DHT22;21895;47.072;15.132;2023-09-19T15:04:31;24.30;97.20
20929;DHT22;21895;47.072;15.132;2023-09-19T15:06:57;24.30;97.50
20929;DHT22;21895;47.072;15.132;2023-09-19T15:09:25;24.10;97.90
20929;DHT22;21895;47.072;15.132;2023-09-19T15:11:55;23.80;98.10
20929;DHT22;21895;47.072;15.132;2023-09-19T15:14:22;23.70;98.10
20929;DHT22;21895;47.072;15.132;2023-09-19T15:16:54;23.60;98.20
20929;DHT22;21895;47.072;15.132;2023-09-19T15:19:20;23.50;98.90
20929;DHT22;21895;47.072;15.132;2023-09-19T15:21:48;23.50;99.20
20929;DHT22;21895;47.072;15.132;2023-09-19T15:24:15;23.40;99.40
20929;DHT22;21895;47.072;15.132;2023-09-19T15:26:42;23.40;99.40
20929;DHT22;21895;47.072;15.132;2023-09-19T15:29:10;23.40;99.60
20929;DHT22;21895;47.072;15.132;2023-09-19T15:31:37;23.50;99.50
20929;DHT22;21895;47.072;15.132;2023-09-19T15:34:04;23.40;99.80
20929;DHT22;21895;47.072;15.132;2023-09-19T15:36:33;23.40;99.90
20929;DHT22;21895;47.072;15.132;2023-09-19T15:39:01;23.30;99.90
20929;DHT22;21895;47.072;15.132;2023-09-19T15:41:36;23.20;99.90
20929;DHT22;21895;47.072;15.132;2023-09-19T15:44:14;23.20;99.90
20929;DHT22;21895;47.072;15.132;2023-09-19T15:46:43;23.20;99.90
20929;DHT22;21895;47.072;15.132;2023-09-19T15:49:10;23.10;99.90
20929;DHT22;21895;47.072;15.132;2023-09-19T15:51:38;22.90;99.90
20929;DHT22;21895;47.072;15.132;2023-09-19T15:54:11;22.80;99.90
20929;DHT22;21895;47.072;15.132;2023-09-19T15:56:43;22.60;99.90
20929;DHT22;21895;47.072;15.132;2023-09-19T15:59:10;22.50;99.90
20929;DHT22;21895;47.072;15.132;2023-09-19T16:01:41;22.30;99.90
20929;DHT22;21895;47.072;15.132;2023-09-19T16:04:09;22.10;99.90